createdAt,value
2022-11-10T00:01:07.485Z,100.00
2022-11-10T00:03:35.948Z,100.00
2022-11-10T00:06:05.854Z,100.00
2022-11-10T00:08:33.146Z,100.00
2022-11-10T00:11:06.386Z,100.00
2022-11-10T00:13:56.445Z,100.00
2022-11-10T00:16:42.310Z,100.00
2022-11-10T00:19:09.723Z,100.00
2022-11-10T00:21:37.903Z,100.00
2022-11-10T00:24:05.769Z,100.00
2022-11-10T00:26:32.681Z,100.00
2022-11-10T00:28:59.649Z,100.00
2022-11-10T00:31:28.552Z,100.00
2022-11-10T00:33:55.925Z,100.00
2022-11-10T00:36:23.646Z,100.00
2022-11-10T00:38:51.871Z,100.00
2022-11-10T00:41:18.968Z,100.00
2022-11-10T00:43:46.086Z,100.00
2022-11-10T00:46:13.215Z,100.00
2022-11-10T00:48:40.691Z,100.00
2022-11-10T00:51:09.847Z,100.00
2022-11-10T00:53:36.741Z,100.00
2022-11-10T00:56:03.677Z,100.00
2022-11-10T00:58:30.571Z,100.00
2022-11-10T01:01:03.039Z,100.00
2022-11-10T01:03:30.221Z,100.00
2022-11-10T01:05:57.150Z,100.00
2022-11-10T01:08:24.542Z,100.00
2022-11-10T01:10:51.480Z,100.00
2022-11-10T01:13:18.435Z,100.00
2022-11-10T01:15:45.381Z,100.00
2022-11-10T01:18:12.310Z,100.00
2022-11-10T01:20:39.259Z,100.00
2022-11-10T01:23:06.156Z,100.00
2022-11-10T01:25:33.059Z,100.00
2022-11-10T01:27:59.986Z,100.00
2022-11-10T01:30:26.976Z,100.00
2022-11-10T01:32:55.965Z,100.00
2022-11-10T01:35:22.901Z,100.00
2022-11-10T01:37:52.717Z,100.00
2022-11-10T01:40:20.497Z,100.00
2022-11-10T01:42:53.442Z,100.00
2022-11-10T01:45:23.321Z,100.00
2022-11-10T01:47:56.488Z,100.00
2022-11-10T01:50:30.197Z,100.00
2022-11-10T01:53:02.484Z,100.00
2022-11-10T01:55:30.523Z,100.00
2022-11-10T01:57:57.877Z,100.00
2022-11-10T02:00:25.013Z,100.00
2022-11-10T02:03:32.376Z,100.00
2022-11-10T02:06:00.044Z,100.00
2022-11-10T02:08:27.846Z,100.00
2022-11-10T02:10:55.735Z,100.00
2022-11-10T02:13:23.101Z,100.00
2022-11-10T02:15:50.794Z,100.00
2022-11-10T02:18:17.782Z,100.00
2022-11-10T02:20:46.133Z,100.00
2022-11-10T02:23:36.382Z,100.00
2022-11-10T02:26:07.028Z,100.00
2022-11-10T02:28:37.065Z,100.00
2022-11-10T02:31:05.371Z,100.00
2022-11-10T02:33:32.300Z,100.00
2022-11-10T02:35:59.259Z,100.00
2022-11-10T02:38:26.167Z,100.00
2022-11-10T02:40:53.106Z,100.00
2022-11-10T02:43:20.490Z,100.00
2022-11-10T02:45:47.774Z,100.00
2022-11-10T02:48:15.962Z,100.00
2022-11-10T02:50:43.286Z,100.00
2022-11-10T02:53:10.276Z,100.00
2022-11-10T02:55:37.242Z,100.00
2022-11-10T02:58:04.412Z,100.00
2022-11-10T03:00:31.522Z,100.00
2022-11-10T03:03:02.102Z,100.00
2022-11-10T03:05:30.486Z,100.00
2022-11-10T03:08:01.508Z,100.00
2022-11-10T03:10:30.418Z,100.00
2022-11-10T03:12:59.994Z,100.00
2022-11-10T03:15:28.000Z,100.00
2022-11-10T03:17:55.870Z,100.00
2022-11-10T03:20:23.336Z,100.00
2022-11-10T03:22:50.329Z,100.00
2022-11-10T03:25:17.304Z,100.00
2022-11-10T03:27:44.865Z,100.00
2022-11-10T03:30:12.228Z,100.00
2022-11-10T03:32:39.199Z,100.00
2022-11-10T03:35:06.525Z,100.00
2022-11-10T03:37:33.472Z,100.00
2022-11-10T03:40:00.449Z,100.00
2022-11-10T03:42:27.413Z,100.00
2022-11-10T03:44:54.364Z,100.00
2022-11-10T03:47:21.401Z,100.00
2022-11-10T03:49:48.399Z,100.00
2022-11-10T03:52:16.033Z,100.00
2022-11-10T03:54:43.083Z,100.00
2022-11-10T03:57:10.032Z,100.00
2022-11-10T03:59:36.945Z,100.00
2022-11-10T04:02:04.129Z,100.00
2022-11-10T04:04:49.638Z,100.00
2022-11-10T04:07:35.136Z,100.00
2022-11-10T04:10:02.145Z,100.00
2022-11-10T04:12:47.827Z,100.00
2022-11-10T04:15:33.402Z,100.00
2022-11-10T04:18:20.318Z,100.00
2022-11-10T04:20:48.478Z,100.00
2022-11-10T04:23:29.188Z,100.00
2022-11-10T04:26:26.173Z,100.00
2022-11-10T04:28:58.160Z,100.00
2022-11-10T04:31:27.684Z,100.00
2022-11-10T04:33:58.228Z,100.00
2022-11-10T04:36:29.456Z,100.00
2022-11-10T04:38:57.245Z,100.00
2022-11-10T04:41:26.115Z,100.00
2022-11-10T04:43:54.080Z,100.00
2022-11-10T04:46:31.325Z,100.00
2022-11-10T04:48:59.328Z,100.00
2022-11-10T04:51:30.393Z,100.00
2022-11-10T04:53:58.005Z,100.00
2022-11-10T04:56:26.782Z,100.00
2022-11-10T04:58:54.768Z,100.00
2022-11-10T05:01:28.370Z,100.00
2022-11-10T05:03:56.076Z,100.00
2022-11-10T05:06:23.604Z,100.00
2022-11-10T05:08:51.316Z,100.00
2022-11-10T05:11:18.786Z,100.00
2022-11-10T05:13:46.051Z,100.00
2022-11-10T05:16:13.252Z,100.00
2022-11-10T05:18:41.620Z,100.00
2022-11-10T05:21:08.846Z,100.00
2022-11-10T05:23:38.958Z,100.00
2022-11-10T05:26:11.936Z,100.00
2022-11-10T05:28:44.066Z,100.00
2022-11-10T05:31:12.365Z,100.00
2022-11-10T05:33:39.930Z,100.00
2022-11-10T05:36:08.030Z,100.00
2022-11-10T05:38:39.027Z,100.00
2022-11-10T05:41:10.089Z,100.00
2022-11-10T05:43:36.990Z,100.00
2022-11-10T05:46:03.985Z,100.00
2022-11-10T05:48:30.996Z,100.00
2022-11-10T05:50:57.999Z,100.00
2022-11-10T05:53:25.208Z,100.00
2022-11-10T05:55:52.413Z,100.00
2022-11-10T05:58:19.362Z,100.00
2022-11-10T06:00:46.385Z,100.00
2022-11-10T06:03:17.369Z,100.00
2022-11-10T06:05:44.716Z,100.00
2022-11-10T06:08:12.131Z,100.00
2022-11-10T06:10:40.226Z,100.00
2022-11-10T06:13:07.493Z,100.00
2022-11-10T06:15:34.468Z,100.00
2022-11-10T06:18:02.200Z,100.00
2022-11-10T06:20:29.466Z,100.00
2022-11-10T06:23:21.165Z,100.00
2022-11-10T06:25:48.371Z,100.00
2022-11-10T06:28:15.385Z,100.00
2022-11-10T06:30:42.294Z,100.00
2022-11-10T06:33:09.582Z,100.00
2022-11-10T06:35:36.585Z,100.00
2022-11-10T06:38:11.698Z,100.00
2022-11-10T06:40:38.627Z,100.00
2022-11-10T06:43:05.656Z,100.00
2022-11-10T06:45:32.597Z,100.00
2022-11-10T06:48:09.660Z,100.00
2022-11-10T06:50:36.785Z,100.00
2022-11-10T06:53:04.203Z,100.00
2022-11-10T06:55:31.397Z,100.00
2022-11-10T06:57:58.676Z,100.00
2022-11-10T07:00:28.556Z,100.00
2022-11-10T07:03:07.158Z,100.00
2022-11-10T07:05:36.542Z,100.00
2022-11-10T07:08:18.303Z,100.00
2022-11-10T07:10:55.053Z,100.00
2022-11-10T07:13:23.316Z,100.00
2022-11-10T07:15:51.076Z,100.00
2022-11-10T07:18:18.075Z,100.00
2022-11-10T07:20:46.259Z,100.00
2022-11-10T07:23:13.261Z,100.00
2022-11-10T07:25:40.166Z,100.00
2022-11-10T07:28:10.594Z,100.00
2022-11-10T07:30:37.901Z,100.00
2022-11-10T07:33:09.441Z,100.00
2022-11-10T07:35:36.887Z,100.00
2022-11-10T07:38:12.488Z,100.00
2022-11-10T07:40:39.821Z,100.00
2022-11-10T07:43:06.933Z,100.00
2022-11-10T07:45:33.981Z,100.00
2022-11-10T07:48:06.664Z,100.00
2022-11-10T07:50:33.937Z,100.00
2022-11-10T07:53:16.353Z,100.00
2022-11-10T07:55:45.195Z,100.00
2022-11-10T07:58:15.228Z,100.00
2022-11-10T08:00:43.313Z,100.00
2022-11-10T08:03:17.050Z,100.00
2022-11-10T08:05:44.302Z,100.00
2022-11-10T08:08:12.155Z,100.00
2022-11-10T08:10:40.953Z,100.00
2022-11-10T08:13:10.992Z,100.00
2022-11-10T08:15:39.163Z,100.00
2022-11-10T08:18:19.344Z,100.00
2022-11-10T08:20:46.483Z,100.00
2022-11-10T08:23:14.612Z,100.00
2022-11-10T08:25:42.055Z,100.00
2022-11-10T08:28:18.159Z,100.00
2022-11-10T08:30:48.399Z,100.00
2022-11-10T08:33:19.608Z,100.00
2022-11-10T08:35:51.083Z,100.00
2022-11-10T08:38:24.548Z,100.00
2022-11-10T08:40:51.723Z,100.00
2022-11-10T08:43:18.998Z,100.00
2022-11-10T08:45:46.613Z,100.00
2022-11-10T08:48:19.970Z,100.00
2022-11-10T08:50:49.636Z,100.00
2022-11-10T08:53:23.961Z,100.00
2022-11-10T08:55:52.189Z,100.00
2022-11-10T08:58:24.049Z,100.00
2022-11-10T09:00:51.728Z,100.00
2022-11-10T09:03:23.917Z,100.00
2022-11-10T09:05:58.081Z,100.00
2022-11-10T09:08:26.463Z,100.00
2022-11-10T09:10:53.432Z,100.00
2022-11-10T09:13:29.071Z,100.00
2022-11-10T09:16:06.316Z,100.00
2022-11-10T09:18:33.488Z,100.00
2022-11-10T09:21:03.334Z,100.00
2022-11-10T09:23:30.377Z,100.00
2022-11-10T09:25:57.384Z,100.00
2022-11-10T09:28:25.262Z,100.00
2022-11-10T09:30:52.970Z,100.00
2022-11-10T09:33:20.594Z,100.00
2022-11-10T09:35:47.983Z,100.00
2022-11-10T09:38:15.084Z,100.00
2022-11-10T09:40:50.934Z,100.00
2022-11-10T09:43:41.373Z,100.00
2022-11-10T09:46:41.872Z,100.00
2022-11-10T09:49:49.850Z,100.00
2022-11-10T09:52:18.185Z,100.00
2022-11-10T09:55:24.758Z,100.00
2022-11-10T09:57:56.396Z,100.00
2022-11-10T10:00:23.411Z,100.00
2022-11-10T10:03:01.232Z,100.00
2022-11-10T10:06:02.617Z,100.00
2022-11-10T10:08:47.719Z,100.00
2022-11-10T10:11:45.020Z,100.00
2022-11-10T10:14:52.614Z,100.00
2022-11-10T10:17:41.696Z,100.00
2022-11-10T10:20:38.027Z,100.00
2022-11-10T10:24:08.422Z,100.00
2022-11-10T10:26:39.265Z,100.00
2022-11-10T10:29:16.480Z,100.00
2022-11-10T10:31:48.749Z,100.00
2022-11-10T10:34:19.947Z,100.00
2022-11-10T10:36:47.411Z,100.00
2022-11-10T10:39:31.343Z,100.00
2022-11-10T10:41:58.951Z,100.00
2022-11-10T10:44:26.202Z,100.00
2022-11-10T10:46:59.722Z,100.00
2022-11-10T10:49:33.794Z,100.00
2022-11-10T10:52:14.955Z,100.00
2022-11-10T10:54:42.025Z,100.00
2022-11-10T10:57:32.495Z,100.00
2022-11-10T11:00:33.212Z,100.00
2022-11-10T11:03:27.288Z,100.00
2022-11-10T11:06:07.647Z,100.00
2022-11-10T11:08:35.204Z,100.00
2022-11-10T11:11:11.384Z,100.00
2022-11-10T11:13:38.840Z,100.00
2022-11-10T11:16:09.463Z,100.00
2022-11-10T11:18:40.127Z,100.00
2022-11-10T11:21:33.645Z,100.00
2022-11-10T11:25:06.963Z,100.00
2022-11-10T11:27:57.595Z,100.00
2022-11-10T11:30:40.321Z,100.00
2022-11-10T11:33:47.295Z,100.00
2022-11-10T11:37:11.149Z,100.00
2022-11-10T11:40:07.002Z,100.00
2022-11-10T11:43:08.992Z,100.00
2022-11-10T11:46:00.524Z,100.00
2022-11-10T11:48:52.324Z,100.00
2022-11-10T11:51:49.561Z,100.00
2022-11-10T11:54:28.647Z,100.00
2022-11-10T11:57:13.569Z,100.00
2022-11-10T12:00:10.433Z,99.74
2022-11-10T12:03:10.637Z,100.00
2022-11-10T12:06:16.361Z,100.00
2022-11-10T12:09:10.064Z,98.31
2022-11-10T12:12:14.417Z,98.54
2022-11-10T12:15:34.395Z,98.77
2022-11-10T12:18:21.723Z,97.77
2022-11-10T12:20:54.564Z,96.12
2022-11-10T12:23:43.036Z,96.65
2022-11-10T12:26:35.299Z,97.94
2022-11-10T12:29:38.804Z,98.68
2022-11-10T12:32:17.404Z,98.80
2022-11-10T12:34:53.116Z,99.45
2022-11-10T12:37:32.756Z,98.70
2022-11-10T12:40:21.336Z,99.18
2022-11-10T12:43:00.196Z,99.54
2022-11-10T12:45:45.243Z,97.97
2022-11-10T12:48:14.918Z,98.49
2022-11-10T12:51:22.005Z,98.35
2022-11-10T12:53:49.790Z,99.00
2022-11-10T12:56:30.151Z,98.50
2022-11-10T12:59:32.447Z,98.58
2022-11-10T13:02:33.598Z,98.00
2022-11-10T13:05:24.292Z,98.85
2022-11-10T13:08:04.850Z,97.90
2022-11-10T13:10:31.931Z,98.99
2022-11-10T13:13:19.376Z,97.94
2022-11-10T13:15:50.590Z,97.74
2022-11-10T13:18:30.965Z,98.36
2022-11-10T13:20:59.618Z,98.69
2022-11-10T13:23:29.309Z,97.48
2022-11-10T13:26:05.889Z,98.35
2022-11-10T13:28:47.801Z,98.55
2022-11-10T13:31:40.271Z,97.57
2022-11-10T13:34:26.700Z,96.79
2022-11-10T13:36:53.888Z,96.08
2022-11-10T13:39:20.738Z,95.70
2022-11-10T13:41:49.107Z,96.45
2022-11-10T13:44:26.130Z,96.41
2022-11-10T13:47:07.906Z,97.92
2022-11-10T13:49:54.894Z,97.46
2022-11-10T13:52:47.286Z,97.45
2022-11-10T13:55:57.905Z,99.29
2022-11-10T13:58:29.601Z,99.04
2022-11-10T14:01:30.425Z,99.15
2022-11-10T14:04:02.892Z,98.63
2022-11-10T14:06:51.701Z,98.80
2022-11-10T14:09:40.000Z,99.21
2022-11-10T14:12:23.348Z,98.96
2022-11-10T14:15:03.106Z,99.57
2022-11-10T14:17:35.707Z,99.63
2022-11-10T14:20:04.189Z,100.00
2022-11-10T14:22:43.269Z,99.62
2022-11-10T14:25:36.210Z,100.00
2022-11-10T14:28:18.491Z,100.00
2022-11-10T14:30:53.379Z,100.00
2022-11-10T14:33:21.243Z,100.00
2022-11-10T14:35:52.649Z,100.00
2022-11-10T14:38:27.374Z,100.00
2022-11-10T14:40:58.750Z,100.00
2022-11-10T14:43:34.578Z,100.00
2022-11-10T14:46:03.634Z,100.00
2022-11-10T14:48:36.976Z,100.00
2022-11-10T14:51:22.345Z,100.00
2022-11-10T14:53:53.501Z,100.00
2022-11-10T14:56:29.308Z,100.00
2022-11-10T14:58:59.319Z,100.00
2022-11-10T15:01:38.764Z,100.00
2022-11-10T15:04:10.848Z,100.00
2022-11-10T15:06:41.881Z,100.00
2022-11-10T15:09:32.159Z,100.00
2022-11-10T15:12:25.866Z,100.00
2022-11-10T15:15:00.987Z,100.00
2022-11-10T15:17:51.682Z,100.00
2022-11-10T15:20:39.971Z,100.00
2022-11-10T15:23:33.818Z,100.00
2022-11-10T15:26:00.951Z,100.00
2022-11-10T15:28:34.486Z,100.00
2022-11-10T15:31:27.913Z,100.00
2022-11-10T15:34:04.850Z,100.00
2022-11-10T15:36:34.526Z,100.00
2022-11-10T15:39:23.418Z,100.00
2022-11-10T15:41:56.897Z,100.00
2022-11-10T15:44:28.132Z,100.00
2022-11-10T15:46:56.917Z,100.00
2022-11-10T15:49:35.958Z,100.00
2022-11-10T15:52:11.387Z,100.00
2022-11-10T15:54:38.484Z,100.00
2022-11-10T15:57:15.230Z,100.00
2022-11-10T15:59:42.658Z,100.00
2022-11-10T16:02:23.999Z,100.00
2022-11-10T16:04:59.590Z,100.00
2022-11-10T16:07:27.100Z,100.00
2022-11-10T16:09:54.049Z,100.00
2022-11-10T16:12:22.645Z,100.00
2022-11-10T16:14:53.000Z,100.00
2022-11-10T16:17:20.115Z,100.00
2022-11-10T16:19:47.435Z,100.00
2022-11-10T16:22:14.669Z,100.00
2022-11-10T16:24:42.082Z,100.00
2022-11-10T16:27:14.297Z,100.00
2022-11-10T16:29:42.840Z,100.00
2022-11-10T16:32:11.750Z,100.00
2022-11-10T16:34:38.764Z,100.00
2022-11-10T16:37:05.889Z,100.00
2022-11-10T16:39:32.895Z,100.00
2022-11-10T16:41:59.888Z,100.00
2022-11-10T16:44:26.854Z,100.00
2022-11-10T16:46:57.301Z,100.00
2022-11-10T16:49:35.620Z,100.00
2022-11-10T16:52:12.145Z,100.00
2022-11-10T16:54:39.028Z,100.00
2022-11-10T16:57:17.179Z,100.00
2022-11-10T16:59:45.755Z,100.00
2022-11-10T17:02:35.766Z,100.00
2022-11-10T17:05:03.538Z,100.00
2022-11-10T17:07:30.671Z,100.00
2022-11-10T17:09:59.182Z,100.00
2022-11-10T17:12:26.231Z,100.00
2022-11-10T17:14:53.248Z,100.00
2022-11-10T17:17:20.796Z,100.00
2022-11-10T17:19:49.444Z,100.00
2022-11-10T17:22:21.692Z,100.00
2022-11-10T17:24:54.909Z,100.00
2022-11-10T17:27:21.953Z,100.00
2022-11-10T17:29:49.131Z,100.00
2022-11-10T17:32:16.029Z,100.00
2022-11-10T17:34:42.990Z,100.00
2022-11-10T17:37:13.893Z,100.00
2022-11-10T17:39:41.446Z,100.00
2022-11-10T17:42:13.689Z,100.00
2022-11-10T17:44:40.636Z,100.00
2022-11-10T17:47:07.682Z,100.00
2022-11-10T17:49:34.601Z,100.00
2022-11-10T17:52:01.539Z,100.00
2022-11-10T17:54:28.495Z,100.00
2022-11-10T17:56:55.405Z,100.00
2022-11-10T17:59:22.366Z,100.00
2022-11-10T18:01:49.319Z,100.00
2022-11-10T18:04:16.282Z,100.00
2022-11-10T18:06:44.209Z,100.00
2022-11-10T18:09:11.143Z,100.00
2022-11-10T18:11:38.509Z,100.00
2022-11-10T18:14:05.495Z,100.00
2022-11-10T18:16:32.895Z,100.00
2022-11-10T18:18:59.887Z,100.00
2022-11-10T18:21:27.481Z,100.00
2022-11-10T18:23:54.451Z,100.00
2022-11-10T18:26:21.417Z,100.00
2022-11-10T18:28:50.104Z,100.00
2022-11-10T18:31:18.977Z,100.00
2022-11-10T18:33:46.018Z,100.00
2022-11-10T18:36:12.994Z,100.00
2022-11-10T18:38:39.963Z,100.00
2022-11-10T18:41:26.275Z,100.00
2022-11-10T18:43:53.228Z,100.00
2022-11-10T18:46:20.268Z,100.00
2022-11-10T18:48:47.857Z,100.00
2022-11-10T18:51:16.362Z,100.00
2022-11-10T18:53:43.400Z,100.00
2022-11-10T18:56:10.451Z,100.00
2022-11-10T18:58:37.586Z,100.00
2022-11-10T19:01:10.148Z,100.00
2022-11-10T19:03:37.755Z,100.00
2022-11-10T19:06:05.217Z,100.00
2022-11-10T19:08:32.309Z,100.00
2022-11-10T19:10:59.762Z,100.00
2022-11-10T19:13:26.748Z,100.00
2022-11-10T19:15:55.747Z,100.00
2022-11-10T19:18:22.704Z,100.00
2022-11-10T19:20:49.674Z,100.00
2022-11-10T19:23:17.773Z,100.00
2022-11-10T19:25:44.873Z,100.00
2022-11-10T19:28:12.059Z,100.00
2022-11-10T19:30:39.740Z,100.00
2022-11-10T19:33:07.316Z,100.00
2022-11-10T19:35:34.356Z,100.00
2022-11-10T19:38:01.271Z,100.00
2022-11-10T19:40:28.247Z,100.00
2022-11-10T19:42:55.222Z,100.00
2022-11-10T19:45:22.445Z,100.00
2022-11-10T19:47:49.377Z,100.00
2022-11-10T19:50:16.593Z,100.00
2022-11-10T19:52:43.552Z,100.00
2022-11-10T19:55:10.596Z,100.00
2022-11-10T19:57:37.656Z,100.00
2022-11-10T20:00:07.009Z,100.00
2022-11-10T20:02:33.989Z,100.00
2022-11-10T20:05:12.883Z,100.00
2022-11-10T20:07:58.743Z,100.00
2022-11-10T20:10:25.926Z,100.00
2022-11-10T20:12:53.120Z,100.00
2022-11-10T20:15:20.076Z,100.00
2022-11-10T20:17:47.060Z,100.00
2022-11-10T20:20:14.842Z,100.00
2022-11-10T20:22:41.785Z,100.00
2022-11-10T20:25:09.664Z,100.00
2022-11-10T20:27:36.723Z,100.00
2022-11-10T20:30:04.959Z,100.00
2022-11-10T20:32:32.194Z,100.00
2022-11-10T20:35:00.692Z,100.00
2022-11-10T20:37:27.668Z,100.00
2022-11-10T20:39:54.618Z,100.00
2022-11-10T20:42:21.572Z,100.00
2022-11-10T20:44:48.495Z,100.00
2022-11-10T20:47:15.526Z,100.00
2022-11-10T20:49:42.611Z,100.00
2022-11-10T20:52:09.563Z,100.00
2022-11-10T20:54:36.501Z,100.00
2022-11-10T20:57:03.475Z,100.00
2022-11-10T20:59:30.462Z,100.00
2022-11-10T21:01:57.572Z,100.00
2022-11-10T21:04:24.662Z,100.00
2022-11-10T21:06:51.649Z,100.00
2022-11-10T21:09:19.932Z,100.00
2022-11-10T21:12:05.475Z,100.00
2022-11-10T21:14:32.402Z,100.00
2022-11-10T21:16:59.355Z,100.00
2022-11-10T21:19:26.409Z,100.00
2022-11-10T21:21:53.913Z,100.00
2022-11-10T21:24:20.999Z,100.00
2022-11-10T21:26:49.105Z,100.00
2022-11-10T21:29:16.094Z,100.00
2022-11-10T21:31:43.070Z,100.00
2022-11-10T21:34:10.128Z,100.00
2022-11-10T21:36:37.088Z,100.00
2022-11-10T21:39:04.178Z,100.00
2022-11-10T21:41:31.915Z,100.00
2022-11-10T21:43:59.072Z,100.00
2022-11-10T21:46:26.011Z,100.00
2022-11-10T21:48:53.136Z,100.00
2022-11-10T21:51:21.117Z,100.00
2022-11-10T21:53:48.712Z,100.00
2022-11-10T21:56:15.668Z,100.00
2022-11-10T21:58:42.573Z,100.00
2022-11-10T22:01:16.852Z,100.00
2022-11-10T22:03:43.943Z,100.00
2022-11-10T22:06:16.043Z,100.00
2022-11-10T22:08:46.540Z,100.00
2022-11-10T22:11:35.843Z,100.00
2022-11-10T22:14:21.744Z,100.00
2022-11-10T22:17:09.602Z,100.00
2022-11-10T22:19:37.590Z,100.00
2022-11-10T22:22:04.680Z,100.00
2022-11-10T22:24:32.128Z,100.00
2022-11-10T22:27:01.603Z,100.00
2022-11-10T22:29:32.239Z,100.00
2022-11-10T22:32:03.347Z,100.00
2022-11-10T22:34:30.321Z,100.00
2022-11-10T22:36:59.475Z,100.00
2022-11-10T22:39:46.822Z,100.00
2022-11-10T22:42:32.915Z,100.00
2022-11-10T22:44:59.861Z,100.00
2022-11-10T22:47:46.771Z,100.00
2022-11-10T22:50:13.770Z,100.00
2022-11-10T22:52:40.672Z,100.00
2022-11-10T22:55:07.963Z,100.00
2022-11-10T22:57:34.860Z,100.00
2022-11-10T23:00:01.788Z,100.00
2022-11-10T23:02:28.732Z,100.00
2022-11-10T23:04:55.660Z,100.00
2022-11-10T23:07:22.633Z,100.00
2022-11-10T23:09:49.595Z,100.00
2022-11-10T23:12:18.336Z,100.00
2022-11-10T23:14:45.241Z,100.00
2022-11-10T23:17:12.257Z,100.00
2022-11-10T23:19:39.194Z,100.00
2022-11-10T23:22:06.104Z,100.00
2022-11-10T23:24:33.078Z,100.00
2022-11-10T23:27:00.290Z,100.00
2022-11-10T23:29:27.230Z,100.00
2022-11-10T23:31:54.161Z,100.00
2022-11-10T23:34:21.076Z,100.00
2022-11-10T23:36:47.978Z,100.00
2022-11-10T23:39:15.008Z,100.00
2022-11-10T23:41:41.913Z,100.00
2022-11-10T23:44:08.843Z,100.00
2022-11-10T23:46:35.803Z,100.00
2022-11-10T23:49:02.739Z,100.00
2022-11-10T23:51:29.641Z,100.00
2022-11-10T23:53:56.796Z,100.00
2022-11-10T23:56:23.691Z,100.00
2022-11-10T23:58:50.768Z,100.00
